Time;durP1;ratioP1;P1;durP2;ratioP2;P2;SDS_P1;SDS_P2;PMS_P1;PMS_P2;Temp;Humidity;BMP_temperature;BMP_pressure;BME280_temperature;BME280_humidity;BME280_pressure;Samples;Min_cycle;Max_cycle;Signal;HPM_P1;HPM_P2
2023/03/02 00:02:20;;;;;;;30.27;11.55;;;;;;;2.62;91.08;98509.78;5234638;27;20321;-83
2023/03/02 00:04:55;;;;;;;29.00;12.80;;;;;;;2.30;93.88;98503.94;5234131;27;20432;-83
2023/03/02 00:07:26;;;;;;;29.95;12.52;;;;;;;2.81;91.72;98513.13;5234431;27;20419;-83
2023/03/02 00:09:54;;;;;;;30.35;12.70;;;;;;;3.40;86.30;98501.75;5215765;27;20066;-83
2023/03/02 00:12:21;;;;;;;27.55;11.65;;;;;;;2.44;91.33;98497.09;5234542;27;20118;-83
2023/03/02 00:14:47;;;;;;;28.20;11.35;;;;;;;2.77;91.02;98502.97;5246020;27;20054;-82
2023/03/02 00:17:14;;;;;;;27.98;12.15;;;;;;;2.93;90.97;98507.13;5239229;27;20089;-82
2023/03/02 00:19:43;;;;;;;28.85;12.63;;;;;;;3.23;90.79;98507.81;5234646;27;20069;-82
2023/03/02 00:22:10;;;;;;;29.83;12.27;;;;;;;3.58;88.14;98498.19;5234588;27;20073;-83
2023/03/02 00:24:37;;;;;;;25.27;10.75;;;;;;;3.53;87.34;98502.50;5234120;27;20072;-83
2023/03/02 00:27:04;;;;;;;24.60;9.80;;;;;;;3.83;86.13;98492.87;5234581;27;20381;-83
2023/03/02 00:29:31;;;;;;;25.00;10.60;;;;;;;3.90;83.37;98489.44;5234300;27;20483;-83
2023/03/02 00:31:58;;;;;;;26.17;10.73;;;;;;;3.81;83.32;98498.00;5215239;27;20057;-83
2023/03/02 00:34:25;;;;;;;23.50;9.48;;;;;;;3.93;82.04;98486.84;5234473;27;20068;-83
2023/03/02 00:36:52;;;;;;;23.25;9.75;;;;;;;4.06;81.20;98494.38;5234484;27;20047;-83
2023/03/02 00:39:19;;;;;;;;;;;;;;;4.19;80.88;98490.00;5234283;27;20055;-83
2023/03/02 00:41:47;;;;;;;24.92;10.60;;;;;;;3.92;82.07;98487.69;5234875;27;19980;-83
2023/03/02 00:44:16;;;;;;;26.58;11.10;;;;;;;3.58;83.53;98480.34;5234406;27;20053;-83
2023/03/02 00:46:43;;;;;;;24.83;9.68;;;;;;;3.40;83.92;98478.78;5234019;27;20046;-83
2023/03/02 00:49:11;;;;;;;25.60;10.18;;;;;;;3.27;84.13;98476.31;5234173;27;20082;-83
2023/03/02 00:51:38;;;;;;;23.08;10.27;;;;;;;3.40;83.38;98472.81;5215789;27;20673;-83
2023/03/02 00:54:05;;;;;;;25.02;9.95;;;;;;;3.60;82.41;98477.78;5233804;27;20058;-83
2023/03/02 00:56:32;;;;;;;23.55;9.23;;;;;;;3.75;81.70;98475.09;5234439;27;20045;-83
2023/03/02 00:59:04;;;;;;;21.08;9.13;;;;;;;3.58;83.81;98477.78;5234387;27;20059;-83
2023/03/02 01:01:31;;;;;;;25.65;10.52;;;;;;;3.74;85.28;98465.75;5234967;27;20408;-83
2023/03/02 01:03:58;;;;;;;24.48;10.13;;;;;;;3.71;85.58;98470.88;5235166;27;20054;-83
2023/03/02 01:06:25;;;;;;;23.10;10.02;;;;;;;3.84;84.91;98471.63;5234941;27;20046;-83
2023/03/02 01:08:51;;;;;;;23.62;9.98;;;;;;;4.06;83.87;98468.00;5234981;27;20061;-83
2023/03/02 01:11:20;;;;;;;21.02;9.55;;;;;;;4.01;83.95;98465.47;5235318;27;20550;-83
2023/03/02 01:13:49;;;;;;;24.52;10.90;;;;;;;3.85;84.32;98455.44;5215825;27;20057;-83
2023/03/02 01:16:16;;;;;;;19.08;8.18;;;;;;;3.93;83.49;98453.66;5234905;27;20054;-83
2023/03/02 01:18:43;;;;;;;26.05;11.43;;;;;;;3.83;83.38;98452.03;5216225;27;20070;-83
2023/03/02 01:21:13;;;;;;;25.73;9.45;;;;;;;3.83;83.60;98452.03;5234790;27;20134;-83
2023/03/02 01:23:40;;;;;;;16.75;6.35;;;;;;;3.88;84.07;98452.88;5216313;27;20107;-83
2023/03/02 01:26:07;;;;;;;26.55;10.20;;;;;;;3.89;85.40;98445.19;5235228;27;20368;-83
2023/03/02 01:28:34;;;;;;;26.33;10.50;;;;;;;3.85;85.61;98447.78;5234529;27;20062;-83
2023/03/02 01:31:03;;;;;;;24.37;10.52;;;;;;;3.77;85.82;98451.25;5235231;27;20062;-83
2023/03/02 01:33:31;;;;;;;24.77;9.48;;;;;;;3.63;85.46;98436.94;5235182;27;20050;-83
2023/03/02 01:35:58;;;;;;;26.85;10.30;;;;;;;3.68;85.83;98443.69;5234675;27;20397;-83
2023/03/02 01:38:25;;;;;;;25.73;9.77;;;;;;;3.45;86.93;98443.03;5216061;27;20077;-83
2023/03/02 01:40:52;;;;;;;24.58;10.15;;;;;;;3.78;85.53;98440.19;5235266;27;20057;-83
2023/03/02 01:43:19;;;;;;;22.98;9.45;;;;;;;3.58;85.98;98429.31;5234540;27;20366;-83
2023/03/02 01:45:52;;;;;;;;;;;;;;;3.86;84.10;98437.56;5235518;27;20050;-83
2023/03/02 01:48:28;;;;;;;22.17;8.57;;;;;;;3.66;84.95;98442.00;5234754;27;20013;-83
2023/03/02 01:50:56;;;;;;;27.73;10.27;;;;;;;3.42;85.33;98437.97;5216215;27;20066;-83
2023/03/02 01:53:25;;;;;;;26.77;11.50;;;;;;;3.76;84.00;98439.34;5235023;27;20054;-83
2023/03/02 01:55:52;;;;;;;24.25;11.00;;;;;;;3.57;84.46;98432.72;5215829;27;20056;-83
2023/03/02 01:58:20;;;;;;;27.13;10.35;;;;;;;3.36;84.77;98432.91;5215936;27;20077;-83
2023/03/02 02:00:47;;;;;;;24.25;11.25;;;;;;;3.43;84.03;98424.34;5235273;27;20058;-83
2023/03/02 02:03:25;;;;;;;24.58;10.20;;;;;;;3.17;83.91;98425.38;5234630;27;20436;-83
2023/03/02 02:06:24;;;;;;;23.08;9.93;;;;;;;3.30;83.68;98423.59;5216134;27;20094;-83
2023/03/02 02:08:53;;;;;;;23.95;8.88;;;;;;;3.43;81.33;98422.63;5234775;27;20072;-83
2023/03/02 02:11:20;;;;;;;25.73;9.10;;;;;;;3.51;81.41;98426.81;5234506;27;20062;-83
2023/03/02 02:13:47;;;;;;;21.85;9.65;;;;;;;3.37;81.94;98434.59;5234936;27;20054;-83
2023/03/02 02:16:14;;;;;;;31.25;12.07;;;;;;;3.26;80.99;98434.66;5234790;27;20140;-83
2023/03/02 02:18:42;;;;;;;23.15;9.52;;;;;;;3.09;80.78;98432.25;5234455;27;20134;-83
2023/03/02 02:21:09;;;;;;;27.62;10.57;;;;;;;3.67;77.55;98434.34;5216191;27;20329;-83
2023/03/02 02:23:39;;;;;;;24.60;9.27;;;;;;;3.61;76.22;98431.81;5215700;27;20058;-83
2023/03/02 02:26:26;;;;;;;27.67;11.35;;;;;;;3.97;73.73;98435.75;5216192;27;20050;-83
2023/03/02 02:28:59;;;;;;;28.98;10.70;;;;;;;3.83;73.84;98435.06;5215842;27;20112;-83
2023/03/02 02:31:49;;;;;;;24.92;10.25;;;;;;;3.40;75.26;98425.22;5215737;27;20069;-83
2023/03/02 02:34:24;;;;;;;26.15;11.12;;;;;;;3.64;74.36;98443.72;5220671;27;20041;-83
2023/03/02 02:36:55;;;;;;;26.35;11.57;;;;;;;3.69;74.74;98437.72;5227857;27;20102;-84
2023/03/02 02:39:29;;;;;;;24.77;10.95;;;;;;;3.67;75.56;98442.00;5234533;27;20404;-83
2023/03/02 02:41:59;;;;;;;24.12;10.25;;;;;;;3.72;74.97;98447.91;5235100;27;20104;-83
2023/03/02 02:44:26;;;;;;;27.27;11.20;;;;;;;3.54;74.92;98434.47;5215889;27;20495;-83
2023/03/02 02:46:53;;;;;;;28.92;11.88;;;;;;;3.49;75.18;98427.66;5235226;27;20050;-83
2023/03/02 02:49:33;;;;;;;25.35;11.15;;;;;;;3.51;73.57;98425.13;5234707;27;20076;-83
2023/03/02 02:52:01;;;;;;;25.30;10.00;;;;;;;3.67;72.59;98426.69;5234655;27;20642;-83
2023/03/02 02:54:29;;;;;;;25.30;10.35;;;;;;;3.24;72.40;98428.75;5215925;27;20068;-83
2023/03/02 02:56:57;;;;;;;24.58;9.98;;;;;;;3.45;70.71;98420.06;5235021;27;20045;-83
2023/03/02 02:59:28;;;;;;;25.17;10.90;;;;;;;3.30;69.76;98425.31;5215318;27;20135;-83
2023/03/02 03:01:55;;;;;;;24.20;10.02;;;;;;;3.28;70.39;98420.19;5216110;27;20069;-83
2023/03/02 03:04:28;;;;;;;25.40;11.12;;;;;;;2.76;71.70;98422.25;5234776;27;20454;-83
2023/03/02 03:07:01;;;;;;;23.60;10.95;;;;;;;2.29;72.79;98423.31;5215599;27;20053;-83
2023/03/02 03:09:28;;;;;;;25.52;11.05;;;;;;;2.27;72.90;98414.84;5234606;27;20378;-83
2023/03/02 03:12:00;;;;;;;24.52;9.85;;;;;;;2.31;71.94;98409.72;5234962;27;20129;-83
2023/03/02 03:14:32;;;;;;;23.10;10.27;;;;;;;2.41;71.32;98407.16;5234396;27;20417;-83
2023/03/02 03:16:59;;;;;;;25.90;10.95;;;;;;;2.59;69.41;98405.38;5216069;27;20049;-83
2023/03/02 03:19:29;;;;;;;24.25;9.98;;;;;;;2.49;68.69;98402.88;5234586;27;20396;-83
2023/03/02 03:21:59;;;;;;;23.95;9.48;;;;;;;2.61;68.01;98413.00;5234616;27;20123;-83
2023/03/02 03:24:28;;;;;;;22.92;9.85;;;;;;;2.71;66.35;98409.53;5234226;27;20050;-83
2023/03/02 03:26:56;;;;;;;24.35;10.20;;;;;;;2.74;64.98;98409.50;5234396;27;20046;-83
2023/03/02 03:29:25;;;;;;;25.73;9.82;;;;;;;2.90;64.35;98405.19;5234621;27;20645;-83
2023/03/02 03:31:54;;;;;;;23.92;10.05;;;;;;;2.92;64.18;98408.56;5234722;27;20062;-83
2023/03/02 03:34:21;;;;;;;23.33;9.38;;;;;;;2.93;63.75;98414.50;5234247;27;20065;-83
2023/03/02 03:36:49;;;;;;;24.27;10.32;;;;;;;1.77;68.36;98409.91;5215790;27;20321;-83
2023/03/02 03:39:17;;;;;;;26.17;10.50;;;;;;;2.32;67.70;98405.47;5234614;27;20115;-83
2023/03/02 03:41:44;;;;;;;26.52;10.55;;;;;;;3.32;64.12;98408.28;5234282;27;20068;-83
2023/03/02 03:44:11;;;;;;;26.60;10.50;;;;;;;3.49;63.77;98408.97;5234632;27;20454;-83
2023/03/02 03:46:38;;;;;;;25.20;10.32;;;;;;;3.52;63.66;98414.06;5234811;27;20057;-83
2023/03/02 03:49:05;;;;;;;24.12;9.93;;;;;;;3.14;65.03;98414.38;5233961;27;20061;-83
2023/03/02 03:51:34;;;;;;;27.23;10.38;;;;;;;3.18;64.35;98418.56;5234848;27;20066;-83
2023/03/02 03:54:03;;;;;;;23.50;10.07;;;;;;;2.86;65.29;98413.69;5216005;27;20051;-83
2023/03/02 03:56:35;;;;;;;26.30;10.65;;;;;;;2.88;65.08;98425.59;5215487;27;20054;-83
2023/03/02 03:59:07;;;;;;;26.92;11.00;;;;;;;2.71;65.57;98417.19;5234593;27;20061;-83
2023/03/02 04:01:38;;;;;;;24.02;10.52;;;;;;;3.00;65.15;98409.38;5216436;27;20066;-83
2023/03/02 04:04:08;;;;;;;25.08;10.50;;;;;;;3.27;64.75;98418.50;5234691;27;20054;-83
2023/03/02 04:06:35;;;;;;;26.17;11.32;;;;;;;3.45;63.55;98413.25;5234634;27;20060;-83
2023/03/02 04:09:03;;;;;;;25.45;9.65;;;;;;;3.17;64.92;98416.88;5234172;27;20123;-83
2023/03/02 04:11:36;;;;;;;24.60;10.32;;;;;;;3.41;63.51;98413.31;5234722;27;20424;-83
2023/03/02 04:14:03;;;;;;;24.08;10.82;;;;;;;2.94;64.95;98411.09;5234588;27;20055;-83
2023/03/02 04:16:30;;;;;;;24.15;9.60;;;;;;;3.10;64.34;98411.00;5211398;27;20103;-83
2023/03/02 04:18:58;;;;;;;26.33;10.88;;;;;;;2.92;64.82;98408.56;5213237;27;20074;-82
2023/03/02 04:21:26;;;;;;;25.48;10.85;;;;;;;2.59;65.77;98409.63;5213430;27;20466;-82
2023/03/02 04:23:53;;;;;;;23.58;10.32;;;;;;;2.51;66.16;98402.00;5211458;27;20054;-82
2023/03/02 04:26:20;;;;;;;24.42;10.05;;;;;;;2.59;65.86;98407.91;5213312;27;20050;-83
2023/03/02 04:28:49;;;;;;;29.58;10.23;;;;;;;2.48;66.33;98411.38;5212954;27;20077;-82
2023/03/02 04:31:16;;;;;;;25.77;11.65;;;;;;;2.08;68.10;98414.06;5212874;27;20113;-82
2023/03/02 04:33:43;;;;;;;24.45;11.10;;;;;;;2.66;66.42;98416.37;5212984;27;20119;-82
2023/03/02 04:36:10;;;;;;;26.55;11.27;;;;;;;2.57;66.11;98421.50;5213307;27;20103;-82
2023/03/02 04:38:37;;;;;;;27.73;11.45;;;;;;;2.49;66.77;98406.25;5212565;27;20314;-82
2023/03/02 04:41:04;;;;;;;26.10;11.68;;;;;;;2.61;66.01;98416.37;5213292;27;20063;-82
2023/03/02 04:43:31;;;;;;;;;;;;;;;2.59;66.17;98419.81;5213500;27;20054;-82
2023/03/02 04:45:58;;;;;;;25.27;10.43;;;;;;;3.18;63.43;98414.31;5212930;27;19962;-82
2023/03/02 04:48:25;;;;;;;25.05;10.93;;;;;;;3.01;63.25;98423.81;5212978;27;20109;-82
2023/03/02 04:50:52;;;;;;;28.00;11.40;;;;;;;2.73;64.64;98410.38;5212864;27;20082;-82
2023/03/02 04:53:19;;;;;;;;;;;;;;;2.53;65.75;98419.81;5213565;27;20062;-82
2023/03/02 04:55:46;;;;;;;22.87;9.85;;;;;;;2.37;66.83;98413.13;5220462;27;19964;-82
2023/03/02 04:58:13;;;;;;;24.65;11.55;;;;;;;2.51;66.23;98418.97;5216814;27;20066;-82
2023/03/02 05:00:40;;;;;;;35.45;14.73;;;;;;;3.17;63.21;98412.62;5213235;27;20062;-82
2023/03/02 05:03:07;;;;;;;37.80;17.02;;;;;;;2.68;64.48;98417.22;5212994;27;20069;-82
2023/03/02 05:05:34;;;;;;;;;;;;;;;2.64;64.92;98412.97;5213052;27;20149;-82
2023/03/02 05:08:01;;;;;;;42.95;18.15;;;;;;;2.87;64.20;98417.94;5213097;27;19965;-82
2023/03/02 05:10:28;;;;;;;40.08;17.73;;;;;;;2.41;65.94;98413.09;5213172;27;20062;-82
2023/03/02 05:13:01;;;;;;;33.80;14.60;;;;;;;2.32;66.36;98413.97;5212577;27;20050;-82
2023/03/02 05:15:32;;;;;;;33.90;13.73;;;;;;;2.31;65.85;98416.53;5222959;27;20099;-82
2023/03/02 05:17:59;;;;;;;39.40;17.67;;;;;;;2.44;65.48;98412.22;5234328;27;20065;-82
2023/03/02 05:20:29;;;;;;;39.38;16.33;;;;;;;2.74;63.05;98416.31;5233818;27;20059;-82
2023/03/02 05:22:57;;;;;;;32.85;14.38;;;;;;;2.49;63.33;98419.00;5234110;27;20066;-82
2023/03/02 05:25:26;;;;;;;33.13;13.90;;;;;;;2.61;63.15;98411.28;5234128;27;20072;-82
2023/03/02 05:27:53;;;;;;;36.63;15.40;;;;;;;2.60;63.66;98404.50;5233564;27;20078;-82
2023/03/02 05:30:20;;;;;;;44.95;18.48;;;;;;;2.35;64.81;98413.13;5234067;27;20066;-82
2023/03/02 05:32:48;;;;;;;47.95;19.62;;;;;;;2.41;65.40;98414.78;5234190;27;20050;-82
2023/03/02 05:35:15;;;;;;;71.72;31.08;;;;;;;2.02;66.70;98414.06;5233704;27;20110;-82
2023/03/02 05:37:43;;;;;;;86.45;31.60;;;;;;;1.83;67.87;98420.06;5234047;27;20070;-82
2023/03/02 05:40:13;;;;;;;79.85;32.03;;;;;;;2.18;67.56;98414.88;5233805;27;20062;-82
2023/03/02 05:42:41;;;;;;;72.25;27.70;;;;;;;1.84;69.80;98414.13;5234220;27;20050;-82
2023/03/02 05:45:19;;;;;;;62.22;26.00;;;;;;;2.45;67.86;98419.88;5234063;27;20054;-82
2023/03/02 05:47:46;;;;;;;66.82;29.58;;;;;;;2.73;66.08;98417.16;5234468;27;20130;-82
2023/03/02 05:50:13;;;;;;;59.17;24.83;;;;;;;2.58;65.80;98421.50;5234984;27;20069;-82
2023/03/02 05:52:40;;;;;;;47.13;21.48;;;;;;;2.52;65.68;98423.22;5235079;27;20058;-82
2023/03/02 05:55:07;;;;;;;;;;;;;;;2.49;65.51;98421.53;5234920;27;20060;-82
2023/03/02 05:57:34;;;;;;;33.67;13.75;;;;;;;2.45;64.63;98427.53;5235067;27;19974;-82
2023/03/02 06:00:01;;;;;;;36.30;14.63;;;;;;;2.36;65.21;98427.56;5216153;27;20076;-82
2023/03/02 06:02:28;;;;;;;44.10;18.67;;;;;;;1.91;67.24;98418.34;5234666;27;20050;-82
2023/03/02 06:04:55;;;;;;;;;;;;;;;2.03;67.76;98426.81;5235321;27;20107;-82
2023/03/02 06:07:22;;;;;;;25.92;9.70;;;;;;;2.20;67.84;98433.53;5235009;27;20315;-82
2023/03/02 06:09:49;;;;;;;31.92;10.38;;;;;;;2.59;66.89;98430.00;5234373;27;20070;-82
2023/03/02 06:12:16;;;;;;;25.55;9.68;;;;;;;3.09;66.72;98434.81;5234936;27;20077;-82
2023/03/02 06:14:43;;;;;;;29.98;10.82;;;;;;;3.89;63.96;98441.78;5234553;27;20047;-82
2023/03/02 06:17:10;;;;;;;;;;;;;;;4.51;60.08;98441.09;5235136;27;20058;-82
2023/03/02 06:19:37;;;;;;;27.45;10.68;;;;;;;5.50;55.86;98437.13;5235159;27;19975;-83
2023/03/02 06:22:04;;;;;;;25.98;11.90;;;;;;;6.28;53.20;98446.03;5234590;27;20411;-83
2023/03/02 06:24:31;;;;;;;30.33;13.15;;;;;;;7.09;50.98;98438.34;5216093;27;20054;-83
2023/03/02 06:26:59;;;;;;;29.37;12.60;;;;;;;7.67;48.96;98449.81;5235077;27;20077;-83
2023/03/02 06:29:26;;;;;;;24.80;10.88;;;;;;;8.30;47.04;98456.75;5234358;27;20058;-83
2023/03/02 06:31:52;;;;;;;23.30;9.88;;;;;;;8.69;46.34;98453.09;5216153;27;20054;-83
2023/03/02 06:34:19;;;;;;;23.00;10.65;;;;;;;9.28;45.27;98454.78;5234975;27;20050;-83
2023/03/02 06:36:46;;;;;;;24.23;10.20;;;;;;;9.83;43.28;98450.44;5234558;27;20054;-83
2023/03/02 06:39:16;;;;;;;27.10;11.95;;;;;;;10.00;40.98;98458.44;5234712;27;20371;-84
2023/03/02 06:41:44;;;;;;;24.55;11.20;;;;;;;9.66;42.29;98457.84;5234861;27;20064;-84
2023/03/02 06:44:13;;;;;;;25.02;11.43;;;;;;;9.81;42.59;98447.91;5234448;27;20103;-84
2023/03/02 06:46:40;;;;;;;20.05;10.23;;;;;;;11.06;40.59;98455.53;5234889;27;20073;-84
2023/03/02 06:49:08;;;;;;;21.55;10.65;;;;;;;11.69;39.52;98464.19;5216101;27;20474;-84
2023/03/02 06:51:35;;;;;;;18.48;8.85;;;;;;;11.31;39.28;98460.56;5235926;27;20050;-83
2023/03/02 06:54:02;;;;;;;19.48;8.55;;;;;;;11.50;38.84;98464.13;5235065;27;20086;-84
2023/03/02 06:56:29;;;;;;;18.77;8.80;;;;;;;12.05;38.01;98453.28;5216067;27;20118;-85
2023/03/02 06:58:56;;;;;;;20.60;9.00;;;;;;;13.03;37.14;98467.94;5234402;27;20054;-82
2023/03/02 07:01:23;;;;;;;23.87;9.05;;;;;;;13.48;35.53;98469.31;5235117;27;20064;-79
2023/03/02 07:03:50;;;;;;;20.17;8.63;;;;;;;13.59;35.54;98465.28;5234708;27;20064;-79
2023/03/02 07:06:17;;;;;;;19.85;9.18;;;;;;;13.28;36.82;98470.25;5234200;27;20054;-80
2023/03/02 07:08:45;;;;;;;19.70;9.23;;;;;;;13.85;35.28;98471.81;5234353;27;20382;-79
2023/03/02 07:11:12;;;;;;;17.27;8.30;;;;;;;14.53;33.02;98484.00;5234286;27;20046;-78
2023/03/02 07:13:39;;;;;;;17.10;7.32;;;;;;;14.58;30.50;98477.66;5234848;27;20107;-78
2023/03/02 07:16:13;;;;;;;15.18;5.90;;;;;;;12.77;30.89;98476.06;5234940;27;20062;-82
2023/03/02 07:18:40;;;;;;;14.87;5.00;;;;;;;12.11;32.21;98477.13;5235236;27;20066;-83
2023/03/02 07:21:07;;;;;;;17.50;7.65;;;;;;;10.98;32.98;98465.28;5234896;27;20046;-83
2023/03/02 07:23:35;;;;;;;16.50;6.68;;;;;;;10.62;34.22;98468.31;5234708;27;20488;-83
2023/03/02 07:26:07;;;;;;;14.98;6.22;;;;;;;10.67;32.74;98468.16;5234323;27;20058;-84
2023/03/02 07:28:35;;;;;;;16.77;7.37;;;;;;;10.27;33.78;98463.56;5234520;27;20059;-83
2023/03/02 07:31:02;;;;;;;13.75;5.55;;;;;;;10.39;34.60;98469.13;5234760;27;20045;-81
2023/03/02 07:33:30;;;;;;;17.85;6.25;;;;;;;10.25;33.20;98463.63;5197777;27;20371;-83
2023/03/02 07:35:56;;;;;;;12.60;5.15;;;;;;;9.92;33.68;98468.16;5234672;27;20058;-82
2023/03/02 07:38:23;;;;;;;14.43;5.78;;;;;;;9.51;35.65;98462.63;5234584;27;20081;-83
2023/03/02 07:40:50;;;;;;;13.75;5.50;;;;;;;9.54;34.66;98461.69;5234406;27;20050;-83
2023/03/02 07:43:18;;;;;;;12.98;5.53;;;;;;;9.39;34.91;98457.03;5234433;27;20103;-83
2023/03/02 07:45:45;;;;;;;12.48;4.53;;;;;;;8.76;36.04;98455.50;5234627;27;20427;-83
2023/03/02 07:48:11;;;;;;;14.60;5.72;;;;;;;9.05;35.61;98457.22;5215382;27;20055;-83
2023/03/02 07:50:38;;;;;;;15.93;5.93;;;;;;;8.94;36.14;98458.38;5234661;27;20050;-83
2023/03/02 07:53:05;;;;;;;12.88;5.55;;;;;;;8.86;36.63;98457.75;5234625;27;20050;-83
2023/03/02 07:55:32;;;;;;;14.87;6.07;;;;;;;9.22;36.34;98448.06;5234311;27;20054;-83
2023/03/02 07:57:59;;;;;;;11.55;4.78;;;;;;;8.91;37.36;98453.31;5234569;27;20522;-83
2023/03/02 08:00:26;;;;;;;16.58;6.12;;;;;;;9.40;36.84;98456.13;5234382;27;20110;-83
2023/03/02 08:02:53;;;;;;;17.98;6.62;;;;;;;9.14;38.32;98447.47;5215664;27;20066;-83
2023/03/02 08:05:20;;;;;;;13.82;5.87;;;;;;;9.12;37.12;98443.25;5234729;27;20063;-83
2023/03/02 08:07:47;;;;;;;15.15;6.37;;;;;;;9.01;37.54;98446.16;5234194;27;20372;-82
2023/03/02 08:10:15;;;;;;;13.02;5.82;;;;;;;9.16;36.80;98444.88;5234141;27;20085;-83
2023/03/02 08:12:42;;;;;;;15.13;6.35;;;;;;;9.13;37.47;98442.38;5234678;27;20412;-82
2023/03/02 08:15:10;;;;;;;11.80;5.00;;;;;;;8.67;37.71;98449.72;5233736;27;20127;-83
2023/03/02 08:17:37;;;;;;;13.00;4.65;;;;;;;8.76;36.83;98451.19;5234569;27;20070;-83
2023/03/02 08:20:04;;;;;;;13.40;5.20;;;;;;;9.39;36.86;98449.31;5234459;27;20132;-83
2023/03/02 08:22:31;;;;;;;15.35;6.28;;;;;;;8.82;36.99;98451.00;5234530;27;20045;-84
2023/03/02 08:24:58;;;;;;;14.85;5.82;;;;;;;8.59;38.36;98451.66;5234539;27;20123;-84
2023/03/02 08:27:25;;;;;;;13.00;4.43;;;;;;;7.84;40.05;98452.81;5234357;27;20055;-84
2023/03/02 08:29:53;;;;;;;13.80;4.60;;;;;;;8.00;39.65;98448.13;5234066;27;20061;-84
2023/03/02 08:32:20;;;;;;;13.82;4.97;;;;;;;8.16;40.45;98451.13;5234441;27;20046;-85
2023/03/02 08:34:50;;;;;;;16.08;6.90;;;;;;;8.44;40.25;98441.81;5234511;27;20135;-84
2023/03/02 08:37:18;;;;;;;18.65;6.93;;;;;;;8.35;40.24;98448.06;5234248;27;20107;-85
2023/03/02 08:39:45;;;;;;;16.08;6.70;;;;;;;8.69;38.69;98439.37;5234266;27;20441;-84
2023/03/02 08:42:12;;;;;;;15.68;6.57;;;;;;;9.19;39.36;98442.19;5234446;27;20049;-86
2023/03/02 08:44:39;;;;;;;17.45;7.35;;;;;;;9.13;38.61;98447.50;5233845;27;20077;-84
2023/03/02 08:47:05;;;;;;;;;;;;;;;9.45;39.24;98443.94;5235180;27;20063;-85
2023/03/02 08:49:32;;;;;;;18.02;6.65;;;;;;;9.84;38.23;98441.81;5233987;27;19968;-85
2023/03/02 08:51:59;;;;;;;15.48;5.75;;;;;;;9.69;38.30;98448.31;5234497;27;20050;-85
2023/03/02 08:54:26;;;;;;;16.98;7.62;;;;;;;9.50;38.37;98437.75;5234363;27;20062;-85
2023/03/02 08:56:53;;;;;;;18.45;7.75;;;;;;;9.93;37.39;98438.09;5234291;27;20054;-86
2023/03/02 08:59:20;;;;;;;14.25;5.20;;;;;;;9.89;38.82;98439.94;5234769;27;20026;-88
2023/03/02 09:01:47;;;;;;;15.43;6.72;;;;;;;10.62;36.78;98441.66;5235382;27;20100;-85
2023/03/02 09:04:14;;;;;;;17.17;7.85;;;;;;;9.57;37.34;98436.69;5214751;27;20062;-84
2023/03/02 09:06:43;;;;;;;15.27;6.37;;;;;;;8.85;38.99;98437.22;5234399;27;20084;-85
2023/03/02 09:09:12;;;;;;;20.27;7.37;;;;;;;8.75;40.17;98430.66;5233819;27;20054;-84
2023/03/02 09:11:41;;;;;;;16.45;6.93;;;;;;;8.74;40.63;98423.84;5233663;27;20087;-84
2023/03/02 09:14:08;;;;;;;18.90;7.47;;;;;;;8.74;41.73;98426.41;5215375;27;20057;-84
2023/03/02 09:16:36;;;;;;;13.73;5.55;;;;;;;9.07;40.45;98421.97;5233964;27;20137;-84
2023/03/02 09:19:03;;;;;;;15.60;7.28;;;;;;;8.95;41.14;98418.06;5233516;27;20050;-85
2023/03/02 09:21:29;;;;;;;15.30;6.43;;;;;;;8.66;42.42;98421.47;5234234;27;20325;-85
2023/03/02 09:23:57;;;;;;;17.55;6.90;;;;;;;8.85;42.11;98412.34;5234935;27;20137;-85
2023/03/02 09:26:25;;;;;;;19.02;7.03;;;;;;;9.49;42.12;98418.06;5234873;27;20133;-86
2023/03/02 09:28:52;;;;;;;17.87;7.45;;;;;;;9.57;41.22;98417.81;5234980;27;20073;-86
2023/03/02 09:31:19;;;;;;;18.75;6.97;;;;;;;9.78;41.17;98418.81;5235050;27;20100;-86
2023/03/02 09:33:49;;;;;;;17.62;7.10;;;;;;;10.10;40.86;98413.41;5234607;27;20408;-86
2023/03/02 09:36:21;;;;;;;16.62;7.57;;;;;;;10.38;40.17;98418.44;5235001;27;20109;-86
2023/03/02 09:38:48;;;;;;;17.48;7.78;;;;;;;10.09;40.44;98416.03;5234694;27;20116;-85
2023/03/02 09:41:18;;;;;;;16.70;7.82;;;;;;;10.23;40.51;98416.44;5235666;27;20088;-86
2023/03/02 09:44:12;;;;;;;18.62;7.22;;;;;;;10.01;41.14;98405.16;5234975;27;20416;-85
2023/03/02 09:46:39;;;;;;;16.67;7.53;;;;;;;10.39;40.91;98406.41;5215767;27;20074;-86
2023/03/02 09:49:20;;;;;;;;;;;;;;;9.67;41.77;98403.69;5235092;27;20054;-84
2023/03/02 09:52:27;;;;;;;18.75;8.57;;;;;;;10.51;40.77;98408.53;5215928;27;20018;-84
2023/03/02 09:54:55;;;;;;;21.70;8.00;;;;;;;9.93;41.51;98409.72;5216064;27;20121;-86
2023/03/02 09:57:32;;;;;;;15.63;6.75;;;;;;;9.45;42.67;98408.72;5216009;27;20119;-85
2023/03/02 10:00:06;;;;;;;12.43;6.68;;;;;;;8.54;45.10;98408.97;5215570;27;20058;-87
2023/03/02 10:02:58;;;;;;;16.10;7.65;;;;;;;8.88;46.06;98412.22;5218054;27;20499;-86
2023/03/02 10:05:44;;;;;;;18.33;8.40;;;;;;;8.96;44.95;98404.28;5218623;27;20067;-86
2023/03/02 10:08:19;;;;;;;20.20;9.30;;;;;;;8.89;46.12;98398.47;5234524;27;20122;-86
2023/03/02 10:11:04;;;;;;;19.90;7.62;;;;;;;8.96;46.92;98407.69;5234874;27;20069;-86
2023/03/02 10:13:41;;;;;;;17.42;7.50;;;;;;;9.21;46.46;98397.47;5236186;27;20100;-87
2023/03/02 10:16:36;;;;;;;21.50;9.00;;;;;;;9.40;45.46;98407.19;5235193;27;20062;-88
2023/03/02 10:19:25;;;;;;;22.00;7.28;;;;;;;9.26;45.31;98403.34;5216293;27;20073;-88
2023/03/02 10:22:16;;;;;;;20.83;8.70;;;;;;;9.51;46.25;98407.69;5234674;27;20049;-87
2023/03/02 10:25:25;;;;;;;21.20;8.65;;;;;;;9.62;46.80;98404.75;5216441;27;20100;-87
2023/03/02 10:28:16;;;;;;;18.58;7.75;;;;;;;9.45;46.39;98411.28;5241476;27;20113;-86
2023/03/02 10:30:44;;;;;;;21.00;8.85;;;;;;;9.34;48.84;98403.06;5236860;27;20065;-88
2023/03/02 10:33:17;;;;;;;20.73;8.27;;;;;;;9.30;49.03;98406.66;5234732;27;20050;-88
2023/03/02 10:35:46;;;;;;;19.90;8.85;;;;;;;9.06;49.28;98402.28;5235095;27;20046;-86
2023/03/02 10:38:16;;;;;;;19.40;8.57;;;;;;;9.27;48.48;98399.87;5234785;27;20065;-86
2023/03/02 10:40:46;;;;;;;19.90;9.23;;;;;;;9.45;48.55;98406.16;5234969;27;20058;-87
2023/03/02 10:43:29;;;;;;;16.95;7.90;;;;;;;9.01;49.16;98396.41;5234384;27;20046;-86
2023/03/02 10:46:03;;;;;;;21.35;8.73;;;;;;;8.76;49.56;98392.03;5234968;27;20088;-86
2023/03/02 10:48:30;;;;;;;19.20;9.27;;;;;;;8.42;50.89;98393.91;5235302;27;20076;-87
2023/03/02 10:50:58;;;;;;;21.10;9.00;;;;;;;8.85;50.33;98389.19;5198945;27;20077;-88
2023/03/02 10:53:25;;;;;;;17.65;8.52;;;;;;;9.21;50.66;98387.19;5238518;27;20068;-85
2023/03/02 10:55:52;;;;;;;19.52;8.23;;;;;;;9.38;49.98;98378.09;5234591;27;20574;-88
2023/03/02 10:58:31;;;;;;;21.52;9.50;;;;;;;9.30;49.96;98392.94;5237075;27;20069;-87
2023/03/02 11:01:03;;;;;;;20.65;9.00;;;;;;;9.84;47.92;98380.78;5218404;27;20129;-87
2023/03/02 11:03:31;;;;;;;21.05;8.40;;;;;;;9.71;47.59;98384.69;5234790;27;20061;-85
2023/03/02 11:06:19;;;;;;;18.00;7.75;;;;;;;9.71;48.47;98376.97;5234869;27;20043;-85
2023/03/02 11:08:57;;;;;;;17.98;7.20;;;;;;;9.73;50.11;98387.22;5235249;27;20458;-86
2023/03/02 11:11:24;;;;;;;18.83;8.80;;;;;;;9.71;49.73;98386.44;5235421;27;20026;-85
2023/03/02 11:13:51;;;;;;;18.27;8.80;;;;;;;10.00;49.66;98388.00;5217569;27;20460;-86
2023/03/02 11:16:18;;;;;;;16.35;7.32;;;;;;;9.83;50.50;98381.69;5235208;27;20050;-86
2023/03/02 11:18:58;;;;;;;20.62;8.30;;;;;;;9.97;48.28;98391.50;5234279;27;20123;-86
2023/03/02 11:21:46;;;;;;;25.17;10.50;;;;;;;9.82;49.77;98387.75;5234861;27;20542;-86
2023/03/02 11:24:17;;;;;;;24.58;9.27;;;;;;;10.13;48.57;98382.34;5235519;27;20054;-82
2023/03/02 11:27:07;;;;;;;19.37;8.82;;;;;;;10.57;48.44;98381.66;5225000;27;20329;-86
2023/03/02 11:29:43;;;;;;;18.15;8.15;;;;;;;10.51;47.69;98377.56;5229635;27;20041;-88
2023/03/02 11:32:21;;;;;;;21.15;9.82;;;;;;;10.65;47.78;98377.06;5215529;27;20577;-87
2023/03/02 11:34:53;;;;;;;20.40;9.40;;;;;;;10.79;46.88;98377.37;5216075;27;20050;-87
2023/03/02 11:37:39;;;;;;;20.05;9.50;;;;;;;11.10;46.08;98365.84;5217455;27;20050;-87
2023/03/02 11:40:21;;;;;;;21.20;9.75;;;;;;;11.11;45.39;98368.38;5215895;27;20066;-86
2023/03/02 11:42:48;;;;;;;22.02;9.60;;;;;;;11.31;45.65;98372.75;5224908;27;280590;-86
2023/03/02 11:45:30;;;;;;;17.17;6.15;;;;;;;11.42;44.47;98369.72;5234115;27;20057;-86